PWSweather.com
Personal Weather Stations
Station Observations
IBAVARIA50
Munich, PlieningDE 85652

MunichPlieningDE 85652

Lat: 48.19916153, Lon: 11.79794312

Elevation: 504

Station Type: Davis Vantage Pro2

http://wetterstation-pliening.info

High Low Average
Temperature 94.0°F34.4°C 65.3°F18.5°C 77.7°F25.4°C
Dew Point 64.7°F18.2°C 55.5°F13.1°C 61.3°F16.3°C
Winds 15.0 mph 24.1 kmh Calm Calm 3.0 mph SSE4.8 kmh SSE
Wind Gusts 22.0 mph35.4 kmh -- 6.0 mph9.7 kmh
Humidity 89% 32% 61%
Pressure 30.00 in1015.9 mb 29.77 in1008.1 mb -
Precipitation 0.07 in1.8 mm - -
Hour Temp Dew Point Humidity Winds Wind Gusts Pressure Precip Precip Rate Daily Precip Total
12:00 AM 71.4°F21.9°C 60.6°F15.9°C 69% 3.0 mph SE4.8 kmh SE 6.0 mph9.7 kmh 29.93 in1013.5 mb 0.00 in0.0 mm 0.00 in0.0 mm 0.00 in0.0 mm
12:05 AM 71.3°F21.8°C 60.9°F16.1°C 70% 2.0 mph SE3.2 kmh SE 5.0 mph8.0 kmh 29.93 in1013.5 mb 0.00 in0.0 mm 0.00 in0.0 mm 0.00 in0.0 mm
12:10 AM 71.2°F21.8°C 60.9°F16.1°C 70% 3.0 mph SSE4.8 kmh SSE 7.0 mph11.3 kmh 29.92 in1013.2 mb 0.00 in0.0 mm 0.00 in0.0 mm 0.00 in0.0 mm
12:15 AM 71.1°F21.7°C 60.8°F16.0°C 70% Calm Calm 6.0 mph9.7 kmh 29.92 in1013.2 mb 0.00 in0.0 mm 0.00 in0.0 mm 0.00 in0.0 mm
12:20 AM 71.0°F21.7°C 60.7°F15.9°C 70% 3.0 mph SE4.8 kmh SE 3.0 mph4.8 kmh 29.92 in1013.2 mb 0.00 in0.0 mm 0.00 in0.0 mm 0.00 in0.0 mm
12:25 AM 70.9°F21.6°C 61.0°F16.1°C 71% 2.0 mph SE3.2 kmh SE 6.0 mph9.7 kmh 29.92 in1013.2 mb 0.00 in0.0 mm 0.00 in0.0 mm 0.00 in0.0 mm
12:30 AM 70.8°F21.6°C 60.9°F16.1°C 71% 1.0 mph SE1.6 kmh SE 3.0 mph4.8 kmh 29.92 in1013.2 mb 0.00 in0.0 mm 0.00 in0.0 mm 0.00 in0.0 mm
12:35 AM 70.7°F21.5°C 61.2°F16.2°C 72% 4.0 mph SE6.4 kmh SE 3.0 mph4.8 kmh 29.92 in1013.2 mb 0.00 in0.0 mm 0.00 in0.0 mm 0.00 in0.0 mm
12:40 AM 70.6°F21.4°C 61.1°F16.2°C 72% 3.0 mph SE4.8 kmh SE 4.0 mph6.4 kmh 29.91 in1012.9 mb 0.00 in0.0 mm 0.00 in0.0 mm 0.00 in0.0 mm
12:45 AM 70.5°F21.4°C 61.4°F16.3°C 73% Calm Calm 3.0 mph4.8 kmh 29.91 in1012.9 mb 0.00 in0.0 mm 0.00 in0.0 mm 0.00 in0.0 mm
12:50 AM 70.4°F21.3°C 60.9°F16.1°C 72% 2.0 mph SE3.2 kmh SE 6.0 mph9.7 kmh 29.91 in1012.9 mb 0.00 in0.0 mm 0.00 in0.0 mm 0.00 in0.0 mm
12:55 AM 70.2°F21.2°C 60.7°F15.9°C 72% 2.0 mph ESE3.2 kmh ESE 4.0 mph6.4 kmh 29.90 in1012.5 mb 0.00 in0.0 mm 0.00 in0.0 mm 0.00 in0.0 mm
01:00 AM 70.0°F21.1°C 60.9°F16.1°C 73% 2.0 mph SSE3.2 kmh SSE 4.0 mph6.4 kmh 29.90 in1012.5 mb 0.00 in0.0 mm 0.00 in0.0 mm 0.00 in0.0 mm
01:05 AM 69.9°F21.1°C 61.2°F16.2°C 74% 2.0 mph SSE3.2 kmh SSE 4.0 mph6.4 kmh 29.89 in1012.2 mb 0.00 in0.0 mm 0.00 in0.0 mm 0.00 in0.0 mm
01:10 AM 69.8°F21.0°C 61.1°F16.2°C 74% Calm Calm 5.0 mph8.0 kmh 29.89 in1012.2 mb 0.00 in0.0 mm 0.00 in0.0 mm 0.00 in0.0 mm
01:15 AM 69.8°F21.0°C 61.1°F16.2°C 74% 1.0 mph SE1.6 kmh SE 4.0 mph6.4 kmh 29.89 in1012.2 mb 0.00 in0.0 mm 0.00 in0.0 mm 0.00 in0.0 mm
01:20 AM 69.7°F20.9°C 61.0°F16.1°C 74% 1.0 mph SSE1.6 kmh SSE 4.0 mph6.4 kmh 29.89 in1012.2 mb 0.00 in0.0 mm 0.00 in0.0 mm 0.00 in0.0 mm
01:25 AM 69.6°F20.9°C 60.9°F16.1°C 74% 1.0 mph SE1.6 kmh SE 5.0 mph8.0 kmh 29.89 in1012.2 mb 0.00 in0.0 mm 0.00 in0.0 mm 0.00 in0.0 mm
01:30 AM 69.5°F20.8°C 60.8°F16.0°C 74% 2.0 mph SE3.2 kmh SE 4.0 mph6.4 kmh 29.89 in1012.2 mb 0.00 in0.0 mm 0.00 in0.0 mm 0.00 in0.0 mm
01:35 AM 69.4°F20.8°C 61.1°F16.2°C 75% 1.0 mph SE1.6 kmh SE 3.0 mph4.8 kmh 29.89 in1012.2 mb 0.00 in0.0 mm 0.00 in0.0 mm 0.00 in0.0 mm
01:40 AM 69.3°F20.7°C 61.0°F16.1°C 75% Calm Calm 2.0 mph3.2 kmh 29.89 in1012.2 mb 0.00 in0.0 mm 0.00 in0.0 mm 0.00 in0.0 mm
01:45 AM 69.2°F20.7°C 60.9°F16.1°C 75% 1.0 mph SSE1.6 kmh SSE 2.0 mph3.2 kmh 29.89 in1012.2 mb 0.00 in0.0 mm 0.00 in0.0 mm 0.00 in0.0 mm
01:50 AM 69.0°F20.6°C 60.7°F15.9°C 75% 1.0 mph SSE1.6 kmh SSE 4.0 mph6.4 kmh 29.89 in1012.2 mb 0.00 in0.0 mm 0.00 in0.0 mm 0.00 in0.0 mm
01:55 AM 68.8°F20.4°C 60.5°F15.8°C 75% 1.0 mph SSE1.6 kmh SSE 3.0 mph4.8 kmh 29.88 in1011.9 mb 0.00 in0.0 mm 0.00 in0.0 mm 0.00 in0.0 mm
02:00 AM 68.8°F20.4°C 60.9°F16.1°C 76% 1.0 mph SSE1.6 kmh SSE 2.0 mph3.2 kmh 29.88 in1011.9 mb 0.00 in0.0 mm 0.00 in0.0 mm 0.00 in0.0 mm
02:05 AM 68.6°F20.3°C 60.7°F15.9°C 76% 2.0 mph ESE3.2 kmh ESE 4.0 mph6.4 kmh 29.88 in1011.9 mb 0.00 in0.0 mm 0.00 in0.0 mm 0.00 in0.0 mm
02:10 AM 68.5°F20.3°C 60.6°F15.9°C 76% 2.0 mph ESE3.2 kmh ESE 3.0 mph4.8 kmh 29.88 in1011.9 mb 0.00 in0.0 mm 0.00 in0.0 mm 0.00 in0.0 mm
02:15 AM 68.3°F20.2°C 60.8°F16.0°C 77% Calm Calm 3.0 mph4.8 kmh 29.88 in1011.9 mb 0.00 in0.0 mm 0.00 in0.0 mm 0.00 in0.0 mm
02:20 AM 68.2°F20.1°C 60.7°F15.9°C 77% Calm Calm 1.0 mph1.6 kmh 29.88 in1011.9 mb 0.00 in0.0 mm 0.00 in0.0 mm 0.00 in0.0 mm
02:25 AM 68.2°F20.1°C 60.7°F15.9°C 77% Calm Calm -- 29.89 in1012.2 mb 0.00 in0.0 mm 0.00 in0.0 mm 0.00 in0.0 mm
02:30 AM 68.1°F20.1°C 60.6°F15.9°C 77% 1.0 mph ESE1.6 kmh ESE 2.0 mph3.2 kmh 29.89 in1012.2 mb 0.00 in0.0 mm 0.00 in0.0 mm 0.00 in0.0 mm
02:35 AM 67.8°F19.9°C 60.6°F15.9°C 78% 1.0 mph ESE1.6 kmh ESE 3.0 mph4.8 kmh 29.89 in1012.2 mb 0.00 in0.0 mm 0.00 in0.0 mm 0.00 in0.0 mm
02:40 AM 67.6°F19.8°C 60.4°F15.8°C 78% 1.0 mph ESE1.6 kmh ESE 3.0 mph4.8 kmh 29.89 in1012.2 mb 0.00 in0.0 mm 0.00 in0.0 mm 0.00 in0.0 mm
02:45 AM 67.2°F19.6°C 60.4°F15.8°C 79% 1.0 mph ESE1.6 kmh ESE 3.0 mph4.8 kmh 29.89 in1012.2 mb 0.00 in0.0 mm 0.00 in0.0 mm 0.00 in0.0 mm
02:50 AM 67.0°F19.4°C 60.2°F15.7°C 79% 1.0 mph ESE1.6 kmh ESE 3.0 mph4.8 kmh 29.88 in1011.9 mb 0.00 in0.0 mm 0.00 in0.0 mm 0.00 in0.0 mm
02:55 AM 66.8°F19.3°C 60.4°F15.8°C 80% 2.0 mph E3.2 kmh E 4.0 mph6.4 kmh 29.88 in1011.9 mb 0.00 in0.0 mm 0.00 in0.0 mm 0.00 in0.0 mm
03:00 AM 66.7°F19.3°C 60.3°F15.7°C 80% Calm Calm 3.0 mph4.8 kmh 29.88 in1011.9 mb 0.00 in0.0 mm 0.00 in0.0 mm 0.00 in0.0 mm
03:05 AM 66.7°F19.3°C 60.3°F15.7°C 80% 2.0 mph ESE3.2 kmh ESE 4.0 mph6.4 kmh 29.88 in1011.9 mb 0.00 in0.0 mm 0.00 in0.0 mm 0.00 in0.0 mm
03:10 AM 66.7°F19.3°C 60.3°F15.7°C 80% 1.0 mph ESE1.6 kmh ESE 4.0 mph6.4 kmh 29.88 in1011.9 mb 0.00 in0.0 mm 0.00 in0.0 mm 0.00 in0.0 mm
03:15 AM 66.7°F19.3°C 60.3°F15.7°C 80% 1.0 mph SE1.6 kmh SE 3.0 mph4.8 kmh 29.88 in1011.9 mb 0.00 in0.0 mm 0.00 in0.0 mm 0.00 in0.0 mm
03:20 AM 66.7°F19.3°C 60.3°F15.7°C 80% 1.0 mph ESE1.6 kmh ESE 3.0 mph4.8 kmh 29.88 in1011.9 mb 0.00 in0.0 mm 0.00 in0.0 mm 0.00 in0.0 mm
03:25 AM 66.7°F19.3°C 60.3°F15.7°C 80% 1.0 mph SE1.6 kmh SE 3.0 mph4.8 kmh 29.88 in1011.9 mb 0.00 in0.0 mm 0.00 in0.0 mm 0.00 in0.0 mm
03:30 AM 66.8°F19.3°C 60.0°F15.6°C 79% 2.0 mph SSE3.2 kmh SSE 4.0 mph6.4 kmh 29.88 in1011.9 mb 0.00 in0.0 mm 0.00 in0.0 mm 0.00 in0.0 mm
03:35 AM 66.9°F19.4°C 60.1°F15.6°C 79% 1.0 mph SSE1.6 kmh SSE 3.0 mph4.8 kmh 29.88 in1011.9 mb 0.00 in0.0 mm 0.00 in0.0 mm 0.00 in0.0 mm
03:40 AM 66.9°F19.4°C 60.1°F15.6°C 79% 2.0 mph SE3.2 kmh SE 3.0 mph4.8 kmh 29.88 in1011.9 mb 0.00 in0.0 mm 0.00 in0.0 mm 0.00 in0.0 mm
03:45 AM 66.9°F19.4°C 60.1°F15.6°C 79% 4.0 mph SSE6.4 kmh SSE 4.0 mph6.4 kmh 29.88 in1011.9 mb 0.00 in0.0 mm 0.00 in0.0 mm 0.00 in0.0 mm
03:50 AM 66.9°F19.4°C 60.1°F15.6°C 79% Calm Calm 3.0 mph4.8 kmh 29.88 in1011.9 mb 0.00 in0.0 mm 0.00 in0.0 mm 0.00 in0.0 mm
03:55 AM 66.9°F19.4°C 60.1°F15.6°C 79% Calm Calm 1.0 mph1.6 kmh 29.88 in1011.9 mb 0.00 in0.0 mm 0.00 in0.0 mm 0.00 in0.0 mm
04:00 AM 67.0°F19.4°C 60.6°F15.9°C 80% Calm Calm -- 29.88 in1011.9 mb 0.00 in0.0 mm 0.00 in0.0 mm 0.00 in0.0 mm
04:05 AM 67.0°F19.4°C 60.2°F15.7°C 79% 2.0 mph SE3.2 kmh SE 2.0 mph3.2 kmh 29.88 in1011.9 mb 0.00 in0.0 mm 0.00 in0.0 mm 0.00 in0.0 mm
04:10 AM 66.6°F19.2°C 60.2°F15.7°C 80% 2.0 mph ESE3.2 kmh ESE 4.0 mph6.4 kmh 29.88 in1011.9 mb 0.00 in0.0 mm 0.00 in0.0 mm 0.00 in0.0 mm
04:15 AM 66.3°F19.1°C 59.9°F15.5°C 80% 1.0 mph ESE1.6 kmh ESE 3.0 mph4.8 kmh 29.88 in1011.9 mb 0.00 in0.0 mm 0.00 in0.0 mm 0.00 in0.0 mm
04:20 AM 66.2°F19.0°C 60.1°F15.6°C 81% 2.0 mph ESE3.2 kmh ESE 3.0 mph4.8 kmh 29.88 in1011.9 mb 0.00 in0.0 mm 0.00 in0.0 mm 0.00 in0.0 mm
04:25 AM 66.2°F19.0°C 60.1°F15.6°C 81% 2.0 mph ESE3.2 kmh ESE 3.0 mph4.8 kmh 29.88 in1011.9 mb 0.00 in0.0 mm 0.00 in0.0 mm 0.00 in0.0 mm
04:30 AM 66.1°F18.9°C 60.0°F15.6°C 81% Calm Calm 2.0 mph3.2 kmh 29.88 in1011.9 mb 0.00 in0.0 mm 0.00 in0.0 mm 0.00 in0.0 mm
04:35 AM 66.0°F18.9°C 59.9°F15.5°C 81% Calm Calm 2.0 mph3.2 kmh 29.88 in1011.9 mb 0.00 in0.0 mm 0.00 in0.0 mm 0.00 in0.0 mm
04:40 AM 65.9°F18.8°C 59.8°F15.4°C 81% 1.0 mph SE1.6 kmh SE 3.0 mph4.8 kmh 29.88 in1011.9 mb 0.00 in0.0 mm 0.00 in0.0 mm 0.00 in0.0 mm
04:45 AM 65.9°F18.8°C 59.8°F15.4°C 81% 1.0 mph ESE1.6 kmh ESE 3.0 mph4.8 kmh 29.88 in1011.9 mb 0.00 in0.0 mm 0.00 in0.0 mm 0.00 in0.0 mm
04:50 AM 66.0°F18.9°C 59.9°F15.5°C 81% 2.0 mph SE3.2 kmh SE 4.0 mph6.4 kmh 29.88 in1011.9 mb 0.00 in0.0 mm 0.00 in0.0 mm 0.00 in0.0 mm
04:55 AM 65.9°F18.8°C 59.8°F15.4°C 81% 3.0 mph ESE4.8 kmh ESE 5.0 mph8.0 kmh 29.88 in1011.9 mb 0.00 in0.0 mm 0.00 in0.0 mm 0.00 in0.0 mm
05:00 AM 65.8°F18.8°C 59.7°F15.4°C 81% 2.0 mph SE3.2 kmh SE 5.0 mph8.0 kmh 29.88 in1011.9 mb 0.00 in0.0 mm 0.00 in0.0 mm 0.00 in0.0 mm
05:05 AM 65.6°F18.7°C 59.6°F15.3°C 81% 2.0 mph SE3.2 kmh SE 5.0 mph8.0 kmh 29.88 in1011.9 mb 0.00 in0.0 mm 0.00 in0.0 mm 0.00 in0.0 mm
05:10 AM 65.4°F18.6°C 59.7°F15.4°C 82% 2.0 mph SE3.2 kmh SE 6.0 mph9.7 kmh 29.88 in1011.9 mb 0.00 in0.0 mm 0.00 in0.0 mm 0.00 in0.0 mm
05:15 AM 65.4°F18.6°C 59.7°F15.4°C 82% 6.0 mph ESE9.7 kmh ESE 7.0 mph11.3 kmh 29.88 in1011.9 mb 0.00 in0.0 mm 0.00 in0.0 mm 0.00 in0.0 mm
05:20 AM 65.4°F18.6°C 59.7°F15.4°C 82% 3.0 mph SE4.8 kmh SE 5.0 mph8.0 kmh 29.88 in1011.9 mb 0.00 in0.0 mm 0.00 in0.0 mm 0.00 in0.0 mm
05:25 AM 65.3°F18.5°C 59.9°F15.5°C 83% 2.0 mph ESE3.2 kmh ESE 5.0 mph8.0 kmh 29.88 in1011.9 mb 0.00 in0.0 mm 0.00 in0.0 mm 0.00 in0.0 mm
05:30 AM 65.4°F18.6°C 60.0°F15.6°C 83% 3.0 mph ESE4.8 kmh ESE 5.0 mph8.0 kmh 29.88 in1011.9 mb 0.00 in0.0 mm 0.00 in0.0 mm 0.00 in0.0 mm
05:35 AM 65.5°F18.6°C 59.8°F15.4°C 82% 3.0 mph SE4.8 kmh SE 7.0 mph11.3 kmh 29.88 in1011.9 mb 0.00 in0.0 mm 0.00 in0.0 mm 0.00 in0.0 mm
05:40 AM 65.6°F18.7°C 59.9°F15.5°C 82% 4.0 mph E6.4 kmh E 5.0 mph8.0 kmh 29.88 in1011.9 mb 0.00 in0.0 mm 0.00 in0.0 mm 0.00 in0.0 mm
05:45 AM 65.7°F18.7°C 60.0°F15.6°C 82% 4.0 mph SE6.4 kmh SE 5.0 mph8.0 kmh 29.88 in1011.9 mb 0.00 in0.0 mm 0.00 in0.0 mm 0.00 in0.0 mm
05:50 AM 65.8°F18.8°C 60.4°F15.8°C 83% 2.0 mph ESE3.2 kmh ESE 4.0 mph6.4 kmh 29.88 in1011.9 mb 0.00 in0.0 mm 0.00 in0.0 mm 0.00 in0.0 mm
05:55 AM 65.9°F18.8°C 60.5°F15.8°C 83% 5.0 mph ESE8.0 kmh ESE 5.0 mph8.0 kmh 29.88 in1011.9 mb 0.00 in0.0 mm 0.00 in0.0 mm 0.00 in0.0 mm
06:00 AM 66.1°F18.9°C 60.4°F15.8°C 82% 2.0 mph E3.2 kmh E 5.0 mph8.0 kmh 29.88 in1011.9 mb 0.00 in0.0 mm 0.00 in0.0 mm 0.00 in0.0 mm
06:05 AM 66.2°F19.0°C 60.5°F15.8°C 82% 1.0 mph ESE1.6 kmh ESE 4.0 mph6.4 kmh 29.89 in1012.2 mb 0.00 in0.0 mm 0.00 in0.0 mm 0.00 in0.0 mm
06:10 AM 66.3°F19.1°C 60.6°F15.9°C 82% 3.0 mph E4.8 kmh E 4.0 mph6.4 kmh 29.89 in1012.2 mb 0.00 in0.0 mm 0.00 in0.0 mm 0.00 in0.0 mm
06:15 AM 66.5°F19.2°C 60.8°F16.0°C 82% 2.0 mph E3.2 kmh E 3.0 mph4.8 kmh 29.89 in1012.2 mb 0.00 in0.0 mm 0.00 in0.0 mm 0.00 in0.0 mm
06:20 AM 66.7°F19.3°C 61.0°F16.1°C 82% 3.0 mph SE4.8 kmh SE 4.0 mph6.4 kmh 29.89 in1012.2 mb 0.00 in0.0 mm 0.00 in0.0 mm 0.00 in0.0 mm
06:25 AM 66.9°F19.4°C 61.2°F16.2°C 82% 3.0 mph E4.8 kmh E 5.0 mph8.0 kmh 29.89 in1012.2 mb 0.00 in0.0 mm 0.00 in0.0 mm 0.00 in0.0 mm
06:30 AM 67.5°F19.7°C 61.4°F16.3°C 81% 3.0 mph ESE4.8 kmh ESE 7.0 mph11.3 kmh 29.89 in1012.2 mb 0.00 in0.0 mm 0.00 in0.0 mm 0.00 in0.0 mm
06:35 AM 68.5°F20.3°C 61.7°F16.5°C 79% 1.0 mph ESE1.6 kmh ESE 4.0 mph6.4 kmh 29.89 in1012.2 mb 0.00 in0.0 mm 0.00 in0.0 mm 0.00 in0.0 mm
06:40 AM 69.7°F20.9°C 62.1°F16.7°C 77% 1.0 mph ESE1.6 kmh ESE 4.0 mph6.4 kmh 29.88 in1011.9 mb 0.00 in0.0 mm 0.00 in0.0 mm 0.00 in0.0 mm
06:45 AM 70.7°F21.5°C 62.3°F16.8°C 75% 2.0 mph S3.2 kmh S 4.0 mph6.4 kmh 29.89 in1012.2 mb 0.00 in0.0 mm 0.00 in0.0 mm 0.00 in0.0 mm
06:50 AM 71.4°F21.9°C 62.6°F17.0°C 74% Calm Calm 3.0 mph4.8 kmh 29.89 in1012.2 mb 0.00 in0.0 mm 0.00 in0.0 mm 0.00 in0.0 mm
06:55 AM 72.4°F22.4°C 63.2°F17.3°C 73% 2.0 mph ESE3.2 kmh ESE 5.0 mph8.0 kmh 29.88 in1011.9 mb 0.00 in0.0 mm 0.00 in0.0 mm 0.00 in0.0 mm
07:00 AM 73.1°F22.8°C 63.1°F17.3°C 71% 2.0 mph SE3.2 kmh SE 6.0 mph9.7 kmh 29.88 in1011.9 mb 0.00 in0.0 mm 0.00 in0.0 mm 0.00 in0.0 mm
07:05 AM 73.4°F23.0°C 63.0°F17.2°C 70% 6.0 mph ESE9.7 kmh ESE 8.0 mph12.9 kmh 29.89 in1012.2 mb 0.00 in0.0 mm 0.00 in0.0 mm 0.00 in0.0 mm
07:10 AM 73.3°F22.9°C 62.9°F17.2°C 70% 2.0 mph E3.2 kmh E 6.0 mph9.7 kmh 29.89 in1012.2 mb 0.00 in0.0 mm 0.00 in0.0 mm 0.00 in0.0 mm
07:15 AM 73.7°F23.2°C 63.6°F17.6°C 71% 5.0 mph E8.0 kmh E 6.0 mph9.7 kmh 29.88 in1011.9 mb 0.00 in0.0 mm 0.00 in0.0 mm 0.00 in0.0 mm
07:20 AM 74.5°F23.6°C 64.0°F17.8°C 70% 2.0 mph ENE3.2 kmh ENE 7.0 mph11.3 kmh 29.89 in1012.2 mb 0.00 in0.0 mm 0.00 in0.0 mm 0.00 in0.0 mm
07:25 AM 75.2°F24.0°C 63.8°F17.7°C 68% 1.0 mph ESE1.6 kmh ESE 6.0 mph9.7 kmh 29.89 in1012.2 mb 0.00 in0.0 mm 0.00 in0.0 mm 0.00 in0.0 mm
07:30 AM 76.3°F24.6°C 64.5°F18.1°C 67% 3.0 mph SE4.8 kmh SE 6.0 mph9.7 kmh 29.88 in1011.9 mb 0.00 in0.0 mm 0.00 in0.0 mm 0.00 in0.0 mm
07:35 AM 77.0°F25.0°C 64.7°F18.2°C 66% 2.0 mph E3.2 kmh E 6.0 mph9.7 kmh 29.88 in1011.9 mb 0.00 in0.0 mm 0.00 in0.0 mm 0.00 in0.0 mm
07:40 AM 77.7°F25.4°C 64.0°F17.8°C 63% 2.0 mph S3.2 kmh S 7.0 mph11.3 kmh 29.88 in1011.9 mb 0.00 in0.0 mm 0.00 in0.0 mm 0.00 in0.0 mm
07:45 AM 78.0°F25.6°C 64.3°F17.9°C 63% 3.0 mph SSE4.8 kmh SSE 5.0 mph8.0 kmh 29.88 in1011.9 mb 0.00 in0.0 mm 0.00 in0.0 mm 0.00 in0.0 mm
07:50 AM 78.5°F25.8°C 64.3°F17.9°C 62% 2.0 mph SE3.2 kmh SE 6.0 mph9.7 kmh 29.88 in1011.9 mb 0.00 in0.0 mm 0.00 in0.0 mm 0.00 in0.0 mm
07:55 AM 78.8°F26.0°C 63.7°F17.6°C 60% Calm Calm 6.0 mph9.7 kmh 29.88 in1011.9 mb 0.00 in0.0 mm 0.00 in0.0 mm 0.00 in0.0 mm
08:00 AM 78.5°F25.8°C 62.9°F17.2°C 59% 3.0 mph S4.8 kmh S 4.0 mph6.4 kmh 29.88 in1011.9 mb 0.00 in0.0 mm 0.00 in0.0 mm 0.00 in0.0 mm
08:05 AM 77.8°F25.4°C 63.7°F17.6°C 62% 3.0 mph SE4.8 kmh SE 4.0 mph6.4 kmh 29.89 in1012.2 mb 0.00 in0.0 mm 0.00 in0.0 mm 0.00 in0.0 mm
08:10 AM 78.2°F25.7°C 63.6°F17.6°C 61% 3.0 mph SE4.8 kmh SE 5.0 mph8.0 kmh 29.89 in1012.2 mb 0.00 in0.0 mm 0.00 in0.0 mm 0.00 in0.0 mm
08:15 AM 78.3°F25.7°C 62.7°F17.1°C 59% 2.0 mph SE3.2 kmh SE 6.0 mph9.7 kmh 29.89 in1012.2 mb 0.00 in0.0 mm 0.00 in0.0 mm 0.00 in0.0 mm
08:20 AM 78.4°F25.8°C 62.8°F17.1°C 59% 2.0 mph S3.2 kmh S 7.0 mph11.3 kmh 29.89 in1012.2 mb 0.00 in0.0 mm 0.00 in0.0 mm 0.00 in0.0 mm
08:25 AM 78.5°F25.8°C 62.9°F17.2°C 59% 2.0 mph SSE3.2 kmh SSE 6.0 mph9.7 kmh 29.89 in1012.2 mb 0.00 in0.0 mm 0.00 in0.0 mm 0.00 in0.0 mm
08:30 AM 79.0°F26.1°C 62.9°F17.2°C 58% 5.0 mph S8.0 kmh S 5.0 mph8.0 kmh 29.88 in1011.9 mb 0.00 in0.0 mm 0.00 in0.0 mm 0.00 in0.0 mm
08:35 AM 79.2°F26.2°C 62.1°F16.7°C 56% 2.0 mph S3.2 kmh S 6.0 mph9.7 kmh 29.88 in1011.9 mb 0.00 in0.0 mm 0.00 in0.0 mm 0.00 in0.0 mm
08:40 AM 79.0°F26.1°C 63.4°F17.4°C 59% 1.0 mph SSE1.6 kmh SSE 6.0 mph9.7 kmh 29.88 in1011.9 mb 0.00 in0.0 mm 0.00 in0.0 mm 0.00 in0.0 mm
08:45 AM 78.6°F25.9°C 62.0°F16.7°C 57% 2.0 mph S3.2 kmh S 6.0 mph9.7 kmh 29.88 in1011.9 mb 0.00 in0.0 mm 0.00 in0.0 mm 0.00 in0.0 mm
08:50 AM 78.1°F25.6°C 62.5°F16.9°C 59% 3.0 mph SE4.8 kmh SE 3.0 mph4.8 kmh 29.88 in1011.9 mb 0.00 in0.0 mm 0.00 in0.0 mm 0.00 in0.0 mm
08:55 AM 78.2°F25.7°C 62.6°F17.0°C 59% 1.0 mph E1.6 kmh E 5.0 mph8.0 kmh 29.88 in1011.9 mb 0.00 in0.0 mm 0.00 in0.0 mm 0.00 in0.0 mm
09:00 AM 78.5°F25.8°C 61.9°F16.6°C 57% 5.0 mph SE8.0 kmh SE 5.0 mph8.0 kmh 29.88 in1011.9 mb 0.00 in0.0 mm 0.00 in0.0 mm 0.00 in0.0 mm
09:05 AM 78.9°F26.1°C 61.8°F16.6°C 56% 4.0 mph E6.4 kmh E 7.0 mph11.3 kmh 29.88 in1011.9 mb 0.00 in0.0 mm 0.00 in0.0 mm 0.00 in0.0 mm
09:10 AM 79.1°F26.2°C 62.0°F16.7°C 56% 5.0 mph E8.0 kmh E 9.0 mph14.5 kmh 29.88 in1011.9 mb 0.00 in0.0 mm 0.00 in0.0 mm 0.00 in0.0 mm
09:15 AM 79.2°F26.2°C 62.1°F16.7°C 56% 4.0 mph ESE6.4 kmh ESE 10.0 mph16.1 kmh 29.88 in1011.9 mb 0.00 in0.0 mm 0.00 in0.0 mm 0.00 in0.0 mm
09:20 AM 79.2°F26.2°C 62.1°F16.7°C 56% 3.0 mph SSE4.8 kmh SSE 8.0 mph12.9 kmh 29.87 in1011.5 mb 0.00 in0.0 mm 0.00 in0.0 mm 0.00 in0.0 mm
09:25 AM 79.5°F26.4°C 62.9°F17.2°C 57% Calm Calm 6.0 mph9.7 kmh 29.87 in1011.5 mb 0.00 in0.0 mm 0.00 in0.0 mm 0.00 in0.0 mm
09:30 AM 79.9°F26.6°C 62.7°F17.1°C 56% 4.0 mph E6.4 kmh E 5.0 mph8.0 kmh 29.87 in1011.5 mb 0.00 in0.0 mm 0.00 in0.0 mm 0.00 in0.0 mm
09:35 AM 80.2°F26.8°C 62.5°F16.9°C 55% 4.0 mph E6.4 kmh E 7.0 mph11.3 kmh 29.87 in1011.5 mb 0.00 in0.0 mm 0.00 in0.0 mm 0.00 in0.0 mm
09:40 AM 80.8°F27.1°C 63.6°F17.6°C 56% 5.0 mph E8.0 kmh E 6.0 mph9.7 kmh 29.87 in1011.5 mb 0.00 in0.0 mm 0.00 in0.0 mm 0.00 in0.0 mm
09:45 AM 81.6°F27.6°C 63.3°F17.4°C 54% 1.0 mph ENE1.6 kmh ENE 6.0 mph9.7 kmh 29.87 in1011.5 mb 0.00 in0.0 mm 0.00 in0.0 mm 0.00 in0.0 mm
09:50 AM 82.3°F27.9°C 63.9°F17.7°C 54% 4.0 mph E6.4 kmh E 7.0 mph11.3 kmh 29.87 in1011.5 mb 0.00 in0.0 mm 0.00 in0.0 mm 0.00 in0.0 mm
09:55 AM 82.7°F28.2°C 63.2°F17.3°C 52% 4.0 mph E6.4 kmh E 8.0 mph12.9 kmh 29.86 in1011.2 mb 0.00 in0.0 mm 0.00 in0.0 mm 0.00 in0.0 mm
10:00 AM 82.9°F28.3°C 63.4°F17.4°C 52% 3.0 mph ENE4.8 kmh ENE 6.0 mph9.7 kmh 29.86 in1011.2 mb 0.00 in0.0 mm 0.00 in0.0 mm 0.00 in0.0 mm
10:05 AM 83.5°F28.6°C 63.9°F17.7°C 52% 5.0 mph E8.0 kmh E 7.0 mph11.3 kmh 29.86 in1011.2 mb 0.00 in0.0 mm 0.00 in0.0 mm 0.00 in0.0 mm
10:10 AM 83.6°F28.7°C 62.9°F17.2°C 50% 2.0 mph ESE3.2 kmh ESE 6.0 mph9.7 kmh 29.86 in1011.2 mb 0.00 in0.0 mm 0.00 in0.0 mm 0.00 in0.0 mm
10:15 AM 84.1°F28.9°C 63.9°F17.7°C 51% 2.0 mph SSE3.2 kmh SSE 5.0 mph8.0 kmh 29.86 in1011.2 mb 0.00 in0.0 mm 0.00 in0.0 mm 0.00 in0.0 mm
10:20 AM 85.0°F29.4°C 63.0°F17.2°C 48% 4.0 mph ESE6.4 kmh ESE 5.0 mph8.0 kmh 29.85 in1010.8 mb 0.00 in0.0 mm 0.00 in0.0 mm 0.00 in0.0 mm
10:25 AM 85.6°F29.8°C 63.6°F17.6°C 48% 3.0 mph E4.8 kmh E 6.0 mph9.7 kmh 29.85 in1010.8 mb 0.00 in0.0 mm 0.00 in0.0 mm 0.00 in0.0 mm
10:30 AM 85.6°F29.8°C 63.0°F17.2°C 47% 2.0 mph E3.2 kmh E 5.0 mph8.0 kmh 29.85 in1010.8 mb 0.00 in0.0 mm 0.00 in0.0 mm 0.00 in0.0 mm
10:35 AM 85.7°F29.8°C 63.1°F17.3°C 47% 3.0 mph S4.8 kmh S 7.0 mph11.3 kmh 29.85 in1010.8 mb 0.00 in0.0 mm 0.00 in0.0 mm 0.00 in0.0 mm
10:40 AM 86.1°F30.1°C 62.2°F16.8°C 45% 4.0 mph SE6.4 kmh SE 9.0 mph14.5 kmh 29.85 in1010.8 mb 0.00 in0.0 mm 0.00 in0.0 mm 0.00 in0.0 mm
10:45 AM 86.2°F30.1°C 61.6°F16.4°C 44% 2.0 mph S3.2 kmh S 6.0 mph9.7 kmh 29.85 in1010.8 mb 0.00 in0.0 mm 0.00 in0.0 mm 0.00 in0.0 mm
10:50 AM 86.8°F30.4°C 62.8°F17.1°C 45% 1.0 mph ESE1.6 kmh ESE 7.0 mph11.3 kmh 29.84 in1010.5 mb 0.00 in0.0 mm 0.00 in0.0 mm 0.00 in0.0 mm
10:55 AM 87.3°F30.7°C 62.0°F16.7°C 43% 4.0 mph SSW6.4 kmh SSW 7.0 mph11.3 kmh 29.85 in1010.8 mb 0.00 in0.0 mm 0.00 in0.0 mm 0.00 in0.0 mm
11:00 AM 87.1°F30.6°C 61.8°F16.6°C 43% 1.0 mph SSW1.6 kmh SSW 6.0 mph9.7 kmh 29.84 in1010.5 mb 0.00 in0.0 mm 0.00 in0.0 mm 0.00 in0.0 mm
11:05 AM 87.3°F30.7°C 62.6°F17.0°C 44% 2.0 mph SSE3.2 kmh SSE 5.0 mph8.0 kmh 29.84 in1010.5 mb 0.00 in0.0 mm 0.00 in0.0 mm 0.00 in0.0 mm
11:10 AM 87.7°F30.9°C 62.3°F16.8°C 43% 1.0 mph ESE1.6 kmh ESE 6.0 mph9.7 kmh 29.84 in1010.5 mb 0.00 in0.0 mm 0.00 in0.0 mm 0.00 in0.0 mm
11:15 AM 88.2°F31.2°C 60.7°F15.9°C 40% 3.0 mph E4.8 kmh E 7.0 mph11.3 kmh 29.84 in1010.5 mb 0.00 in0.0 mm 0.00 in0.0 mm 0.00 in0.0 mm
11:20 AM 88.3°F31.3°C 62.2°F16.8°C 42% 4.0 mph NE6.4 kmh NE 6.0 mph9.7 kmh 29.84 in1010.5 mb 0.00 in0.0 mm 0.00 in0.0 mm 0.00 in0.0 mm
11:25 AM 88.4°F31.3°C 61.6°F16.4°C 41% 4.0 mph ESE6.4 kmh ESE 7.0 mph11.3 kmh 29.84 in1010.5 mb 0.00 in0.0 mm 0.00 in0.0 mm 0.00 in0.0 mm
11:30 AM 88.1°F31.2°C 60.6°F15.9°C 40% 3.0 mph NE4.8 kmh NE 4.0 mph6.4 kmh 29.84 in1010.5 mb 0.00 in0.0 mm 0.00 in0.0 mm 0.00 in0.0 mm
11:35 AM 87.6°F30.9°C 62.2°F16.8°C 43% 2.0 mph SSE3.2 kmh SSE 6.0 mph9.7 kmh 29.84 in1010.5 mb 0.00 in0.0 mm 0.00 in0.0 mm 0.00 in0.0 mm
11:40 AM 88.3°F31.3°C 63.5°F17.5°C 44% 1.0 mph WSW1.6 kmh WSW 3.0 mph4.8 kmh 29.84 in1010.5 mb 0.00 in0.0 mm 0.00 in0.0 mm 0.00 in0.0 mm
11:45 AM 89.2°F31.8°C 62.3°F16.8°C 41% 1.0 mph E1.6 kmh E 4.0 mph6.4 kmh 29.83 in1010.2 mb 0.00 in0.0 mm 0.00 in0.0 mm 0.00 in0.0 mm
11:50 AM 89.8°F32.1°C 60.7°F15.9°C 38% 2.0 mph SE3.2 kmh SE 5.0 mph8.0 kmh 29.83 in1010.2 mb 0.00 in0.0 mm 0.00 in0.0 mm 0.00 in0.0 mm
11:55 AM 89.9°F32.2°C 62.2°F16.8°C 40% 7.0 mph E11.3 kmh E 7.0 mph11.3 kmh 29.83 in1010.2 mb 0.00 in0.0 mm 0.00 in0.0 mm 0.00 in0.0 mm
12:00 PM 89.3°F31.8°C 63.1°F17.3°C 42% 1.0 mph SE1.6 kmh SE 7.0 mph11.3 kmh 29.83 in1010.2 mb 0.00 in0.0 mm 0.00 in0.0 mm 0.00 in0.0 mm
12:05 PM 89.5°F31.9°C 62.6°F17.0°C 41% 4.0 mph SE6.4 kmh SE 6.0 mph9.7 kmh 29.83 in1010.2 mb 0.00 in0.0 mm 0.00 in0.0 mm 0.00 in0.0 mm
12:10 PM 89.9°F32.2°C 61.5°F16.4°C 39% 5.0 mph E8.0 kmh E 9.0 mph14.5 kmh 29.82 in1009.8 mb 0.00 in0.0 mm 0.00 in0.0 mm 0.00 in0.0 mm
12:15 PM 89.7°F32.1°C 62.8°F17.1°C 41% 1.0 mph ENE1.6 kmh ENE 5.0 mph8.0 kmh 29.82 in1009.8 mb 0.00 in0.0 mm 0.00 in0.0 mm 0.00 in0.0 mm
12:20 PM 89.9°F32.2°C 60.8°F16.0°C 38% 3.0 mph SSE4.8 kmh SSE 5.0 mph8.0 kmh 29.82 in1009.8 mb 0.00 in0.0 mm 0.00 in0.0 mm 0.00 in0.0 mm
12:25 PM 90.7°F32.6°C 62.2°F16.8°C 39% 4.0 mph SE6.4 kmh SE 5.0 mph8.0 kmh 29.82 in1009.8 mb 0.00 in0.0 mm 0.00 in0.0 mm 0.00 in0.0 mm
12:30 PM 91.2°F32.9°C 59.6°F15.3°C 35% 2.0 mph S3.2 kmh S 5.0 mph8.0 kmh 29.82 in1009.8 mb 0.00 in0.0 mm 0.00 in0.0 mm 0.00 in0.0 mm
12:35 PM 91.8°F33.2°C 60.1°F15.6°C 35% 3.0 mph NE4.8 kmh NE 4.0 mph6.4 kmh 29.81 in1009.5 mb 0.00 in0.0 mm 0.00 in0.0 mm 0.00 in0.0 mm
12:40 PM 91.6°F33.1°C 59.2°F15.1°C 34% 1.0 mph N1.6 kmh N 4.0 mph6.4 kmh 29.81 in1009.5 mb 0.00 in0.0 mm 0.00 in0.0 mm 0.00 in0.0 mm
12:45 PM 91.6°F33.1°C 60.8°F16.0°C 36% 1.0 mph NW1.6 kmh NW 4.0 mph6.4 kmh 29.81 in1009.5 mb 0.00 in0.0 mm 0.00 in0.0 mm 0.00 in0.0 mm
12:50 PM 90.7°F32.6°C 59.2°F15.1°C 35% 2.0 mph SW3.2 kmh SW 5.0 mph8.0 kmh 29.81 in1009.5 mb 0.00 in0.0 mm 0.00 in0.0 mm 0.00 in0.0 mm
12:55 PM 90.7°F32.6°C 60.0°F15.6°C 36% 3.0 mph NE4.8 kmh NE 5.0 mph8.0 kmh 29.81 in1009.5 mb 0.00 in0.0 mm 0.00 in0.0 mm 0.00 in0.0 mm
01:00 PM 90.8°F32.7°C 60.8°F16.0°C 37% 3.0 mph ESE4.8 kmh ESE 5.0 mph8.0 kmh 29.81 in1009.5 mb 0.00 in0.0 mm 0.00 in0.0 mm 0.00 in0.0 mm
01:05 PM 91.3°F32.9°C 62.0°F16.7°C 38% 4.0 mph ESE6.4 kmh ESE 8.0 mph12.9 kmh 29.81 in1009.5 mb 0.00 in0.0 mm 0.00 in0.0 mm 0.00 in0.0 mm
01:10 PM 91.7°F33.2°C 60.9°F16.1°C 36% 5.0 mph E8.0 kmh E 6.0 mph9.7 kmh 29.81 in1009.5 mb 0.00 in0.0 mm 0.00 in0.0 mm 0.00 in0.0 mm
01:15 PM 91.9°F33.3°C 60.2°F15.7°C 35% 3.0 mph SE4.8 kmh SE 10.0 mph16.1 kmh 29.81 in1009.5 mb 0.00 in0.0 mm 0.00 in0.0 mm 0.00 in0.0 mm
01:20 PM 92.8°F33.8°C 59.4°F15.2°C 33% Calm Calm 7.0 mph11.3 kmh 29.80 in1009.1 mb 0.00 in0.0 mm 0.00 in0.0 mm 0.00 in0.0 mm
01:25 PM 93.5°F34.2°C 60.0°F15.6°C 33% Calm Calm 3.0 mph4.8 kmh 29.80 in1009.1 mb 0.00 in0.0 mm 0.00 in0.0 mm 0.00 in0.0 mm
01:30 PM 94.0°F34.4°C 60.4°F15.8°C 33% 1.0 mph NE1.6 kmh NE 3.0 mph4.8 kmh 29.80 in1009.1 mb 0.00 in0.0 mm 0.00 in0.0 mm 0.00 in0.0 mm
01:35 PM 93.6°F34.2°C 60.1°F15.6°C 33% 4.0 mph NE6.4 kmh NE 5.0 mph8.0 kmh 29.80 in1009.1 mb 0.00 in0.0 mm 0.00 in0.0 mm 0.00 in0.0 mm
01:40 PM 93.5°F34.2°C 61.6°F16.4°C 35% 2.0 mph WSW3.2 kmh WSW 6.0 mph9.7 kmh 29.80 in1009.1 mb 0.00 in0.0 mm 0.00 in0.0 mm 0.00 in0.0 mm
01:45 PM 93.6°F34.2°C 60.9°F16.1°C 34% 7.0 mph N11.3 kmh N 7.0 mph11.3 kmh 29.79 in1008.8 mb 0.00 in0.0 mm 0.00 in0.0 mm 0.00 in0.0 mm
01:50 PM 92.9°F33.8°C 59.5°F15.3°C 33% 5.0 mph N8.0 kmh N 10.0 mph16.1 kmh 29.79 in1008.8 mb 0.00 in0.0 mm 0.00 in0.0 mm 0.00 in0.0 mm
01:55 PM 92.2°F33.4°C 60.5°F15.8°C 35% 3.0 mph N4.8 kmh N 9.0 mph14.5 kmh 29.79 in1008.8 mb 0.00 in0.0 mm 0.00 in0.0 mm 0.00 in0.0 mm
02:00 PM 92.1°F33.4°C 61.2°F16.2°C 36% 3.0 mph WNW4.8 kmh WNW 7.0 mph11.3 kmh 29.79 in1008.8 mb 0.00 in0.0 mm 0.00 in0.0 mm 0.00 in0.0 mm
02:05 PM 92.1°F33.4°C 58.8°F14.9°C 33% 3.0 mph N4.8 kmh N 6.0 mph9.7 kmh 29.80 in1009.1 mb 0.00 in0.0 mm 0.00 in0.0 mm 0.00 in0.0 mm
02:10 PM 91.6°F33.1°C 60.0°F15.6°C 35% 3.0 mph SE4.8 kmh SE 10.0 mph16.1 kmh 29.80 in1009.1 mb 0.00 in0.0 mm 0.00 in0.0 mm 0.00 in0.0 mm
02:15 PM 92.0°F33.3°C 61.9°F16.6°C 37% 1.0 mph NNE1.6 kmh NNE 5.0 mph8.0 kmh 29.79 in1008.8 mb 0.00 in0.0 mm 0.00 in0.0 mm 0.00 in0.0 mm
02:20 PM 92.9°F33.8°C 60.3°F15.7°C 34% 1.0 mph W1.6 kmh W 4.0 mph6.4 kmh 29.79 in1008.8 mb 0.00 in0.0 mm 0.00 in0.0 mm 0.00 in0.0 mm
02:25 PM 93.6°F34.2°C 59.2°F15.1°C 32% 3.0 mph NE4.8 kmh NE 6.0 mph9.7 kmh 29.79 in1008.8 mb 0.00 in0.0 mm 0.00 in0.0 mm 0.00 in0.0 mm
02:30 PM 92.9°F33.8°C 58.6°F14.8°C 32% 4.0 mph NNE6.4 kmh NNE 9.0 mph14.5 kmh 29.79 in1008.8 mb 0.00 in0.0 mm 0.00 in0.0 mm 0.00 in0.0 mm
02:35 PM 92.6°F33.7°C 60.0°F15.6°C 34% 5.0 mph N8.0 kmh N 7.0 mph11.3 kmh 29.79 in1008.8 mb 0.00 in0.0 mm 0.00 in0.0 mm 0.00 in0.0 mm
02:40 PM 92.3°F33.5°C 58.9°F14.9°C 33% 5.0 mph NNE8.0 kmh NNE 10.0 mph16.1 kmh 29.79 in1008.8 mb 0.00 in0.0 mm 0.00 in0.0 mm 0.00 in0.0 mm
02:45 PM 92.2°F33.4°C 58.0°F14.4°C 32% 4.0 mph ENE6.4 kmh ENE 11.0 mph17.7 kmh 29.79 in1008.8 mb 0.00 in0.0 mm 0.00 in0.0 mm 0.00 in0.0 mm
02:50 PM 91.7°F33.2°C 59.2°F15.1°C 34% 3.0 mph NE4.8 kmh NE 7.0 mph11.3 kmh 29.78 in1008.5 mb 0.00 in0.0 mm 0.00 in0.0 mm 0.00 in0.0 mm
02:55 PM 91.9°F33.3°C 59.4°F15.2°C 34% 3.0 mph ENE4.8 kmh ENE 9.0 mph14.5 kmh 29.78 in1008.5 mb 0.00 in0.0 mm 0.00 in0.0 mm 0.00 in0.0 mm
03:00 PM 91.9°F33.3°C 57.7°F14.3°C 32% 1.0 mph NE1.6 kmh NE 9.0 mph14.5 kmh 29.78 in1008.5 mb 0.00 in0.0 mm 0.00 in0.0 mm 0.00 in0.0 mm
03:05 PM 91.9°F33.3°C 58.6°F14.8°C 33% 2.0 mph SE3.2 kmh SE 8.0 mph12.9 kmh 29.78 in1008.5 mb 0.00 in0.0 mm 0.00 in0.0 mm 0.00 in0.0 mm
03:10 PM 91.7°F33.2°C 58.4°F14.7°C 33% 4.0 mph NE6.4 kmh NE 7.0 mph11.3 kmh 29.78 in1008.5 mb 0.00 in0.0 mm 0.00 in0.0 mm 0.00 in0.0 mm
03:15 PM 91.8°F33.2°C 60.1°F15.6°C 35% 3.0 mph NE4.8 kmh NE 11.0 mph17.7 kmh 29.78 in1008.5 mb 0.00 in0.0 mm 0.00 in0.0 mm 0.00 in0.0 mm
03:20 PM 91.9°F33.3°C 59.4°F15.2°C 34% 2.0 mph E3.2 kmh E 5.0 mph8.0 kmh 29.78 in1008.5 mb 0.00 in0.0 mm 0.00 in0.0 mm 0.00 in0.0 mm
03:25 PM 92.0°F33.3°C 58.7°F14.8°C 33% 4.0 mph NNE6.4 kmh NNE 6.0 mph9.7 kmh 29.78 in1008.5 mb 0.00 in0.0 mm 0.00 in0.0 mm 0.00 in0.0 mm
03:30 PM 92.0°F33.3°C 58.7°F14.8°C 33% 4.0 mph NE6.4 kmh NE 6.0 mph9.7 kmh 29.78 in1008.5 mb 0.00 in0.0 mm 0.00 in0.0 mm 0.00 in0.0 mm
03:35 PM 91.7°F33.2°C 59.2°F15.1°C 34% 4.0 mph E6.4 kmh E 6.0 mph9.7 kmh 29.77 in1008.1 mb 0.00 in0.0 mm 0.00 in0.0 mm 0.00 in0.0 mm
03:40 PM 91.4°F33.0°C 57.3°F14.1°C 32% 3.0 mph E4.8 kmh E 6.0 mph9.7 kmh 29.78 in1008.5 mb 0.00 in0.0 mm 0.00 in0.0 mm 0.00 in0.0 mm
03:45 PM 91.0°F32.8°C 57.8°F14.3°C 33% 4.0 mph NNE6.4 kmh NNE 7.0 mph11.3 kmh 29.77 in1008.1 mb 0.00 in0.0 mm 0.00 in0.0 mm 0.00 in0.0 mm
03:50 PM 90.6°F32.6°C 56.6°F13.7°C 32% 1.0 mph SW1.6 kmh SW 7.0 mph11.3 kmh 29.78 in1008.5 mb 0.00 in0.0 mm 0.00 in0.0 mm 0.00 in0.0 mm
03:55 PM 90.6°F32.6°C 57.5°F14.2°C 33% 3.0 mph N4.8 kmh N 4.0 mph6.4 kmh 29.78 in1008.5 mb 0.00 in0.0 mm 0.00 in0.0 mm 0.00 in0.0 mm
04:00 PM 90.3°F32.4°C 57.2°F14.0°C 33% 2.0 mph 3.2 kmh 4.0 mph6.4 kmh 29.78 in1008.5 mb 0.00 in0.0 mm 0.00 in0.0 mm 0.00 in0.0 mm
04:05 PM 90.4°F32.4°C 58.1°F14.5°C 34% 1.0 mph 1.6 kmh 2.0 mph3.2 kmh 29.78 in1008.5 mb 0.00 in0.0 mm 0.00 in0.0 mm 0.00 in0.0 mm
04:10 PM 90.5°F32.5°C 58.2°F14.6°C 34% Calm Calm 5.0 mph8.0 kmh 29.78 in1008.5 mb 0.00 in0.0 mm 0.00 in0.0 mm 0.00 in0.0 mm
04:15 PM 90.6°F32.6°C 59.1°F15.1°C 35% 1.0 mph NW1.6 kmh NW 3.0 mph4.8 kmh 29.78 in1008.5 mb 0.00 in0.0 mm 0.00 in0.0 mm 0.00 in0.0 mm
04:20 PM 90.6°F32.6°C 59.9°F15.5°C 36% 1.0 mph NW1.6 kmh NW 3.0 mph4.8 kmh 29.78 in1008.5 mb 0.00 in0.0 mm 0.00 in0.0 mm 0.00 in0.0 mm
04:25 PM 90.7°F32.6°C 61.5°F16.4°C 38% 1.0 mph NE1.6 kmh NE 3.0 mph4.8 kmh 29.78 in1008.5 mb 0.00 in0.0 mm 0.00 in0.0 mm 0.00 in0.0 mm
04:30 PM 90.3°F32.4°C 59.6°F15.3°C 36% 2.0 mph NE3.2 kmh NE 4.0 mph6.4 kmh 29.78 in1008.5 mb 0.00 in0.0 mm 0.00 in0.0 mm 0.00 in0.0 mm
04:35 PM 90.1°F32.3°C 59.5°F15.3°C 36% 3.0 mph 4.8 kmh 3.0 mph4.8 kmh 29.78 in1008.5 mb 0.00 in0.0 mm 0.00 in0.0 mm 0.00 in0.0 mm
04:40 PM 89.9°F32.2°C 61.5°F16.4°C 39% 1.0 mph N1.6 kmh N 4.0 mph6.4 kmh 29.78 in1008.5 mb 0.00 in0.0 mm 0.00 in0.0 mm 0.00 in0.0 mm
04:45 PM 89.8°F32.1°C 62.9°F17.2°C 41% Calm Calm 2.0 mph3.2 kmh 29.78 in1008.5 mb 0.00 in0.0 mm 0.00 in0.0 mm 0.00 in0.0 mm
04:50 PM 89.6°F32.0°C 62.7°F17.1°C 41% Calm Calm 2.0 mph3.2 kmh 29.78 in1008.5 mb 0.00 in0.0 mm 0.00 in0.0 mm 0.00 in0.0 mm
04:55 PM 89.4°F31.9°C 63.9°F17.7°C 43% Calm Calm 2.0 mph3.2 kmh 29.78 in1008.5 mb 0.00 in0.0 mm 0.00 in0.0 mm 0.00 in0.0 mm
05:00 PM 89.4°F31.9°C 63.9°F17.7°C 43% 1.0 mph NW1.6 kmh NW 2.0 mph3.2 kmh 29.78 in1008.5 mb 0.00 in0.0 mm 0.00 in0.0 mm 0.00 in0.0 mm
05:05 PM 89.5°F31.9°C 59.7°F15.4°C 37% 3.0 mph N4.8 kmh N 5.0 mph8.0 kmh 29.79 in1008.8 mb 0.00 in0.0 mm 0.00 in0.0 mm 0.00 in0.0 mm
05:10 PM 90.1°F32.3°C 61.7°F16.5°C 39% 1.0 mph N1.6 kmh N 3.0 mph4.8 kmh 29.78 in1008.5 mb 0.00 in0.0 mm 0.00 in0.0 mm 0.00 in0.0 mm
05:15 PM 90.4°F32.4°C 58.1°F14.5°C 34% 5.0 mph N8.0 kmh N 9.0 mph14.5 kmh 29.78 in1008.5 mb 0.00 in0.0 mm 0.00 in0.0 mm 0.00 in0.0 mm
05:20 PM 90.1°F32.3°C 57.9°F14.4°C 34% 6.0 mph NE9.7 kmh NE 7.0 mph11.3 kmh 29.78 in1008.5 mb 0.00 in0.0 mm 0.00 in0.0 mm 0.00 in0.0 mm
05:25 PM 89.8°F32.1°C 57.6°F14.2°C 34% 2.0 mph N3.2 kmh N 8.0 mph12.9 kmh 29.78 in1008.5 mb 0.00 in0.0 mm 0.00 in0.0 mm 0.00 in0.0 mm
05:30 PM 89.4°F31.9°C 58.0°F14.4°C 35% 2.0 mph NNE3.2 kmh NNE 4.0 mph6.4 kmh 29.78 in1008.5 mb 0.00 in0.0 mm 0.00 in0.0 mm 0.00 in0.0 mm
05:35 PM 89.0°F31.7°C 59.3°F15.2°C 37% 3.0 mph N4.8 kmh N 3.0 mph4.8 kmh 29.78 in1008.5 mb 0.00 in0.0 mm 0.00 in0.0 mm 0.00 in0.0 mm
05:40 PM 88.5°F31.4°C 59.6°F15.3°C 38% 2.0 mph N3.2 kmh N 5.0 mph8.0 kmh 29.78 in1008.5 mb 0.00 in0.0 mm 0.00 in0.0 mm 0.00 in0.0 mm
05:45 PM 88.1°F31.2°C 59.9°F15.5°C 39% 3.0 mph N4.8 kmh N 4.0 mph6.4 kmh 29.79 in1008.8 mb 0.00 in0.0 mm 0.00 in0.0 mm 0.00 in0.0 mm
05:50 PM 87.8°F31.0°C 61.1°F16.2°C 41% 2.0 mph N3.2 kmh N 3.0 mph4.8 kmh 29.78 in1008.5 mb 0.00 in0.0 mm 0.00 in0.0 mm 0.00 in0.0 mm
05:55 PM 87.7°F30.9°C 61.7°F16.5°C 42% Calm Calm 3.0 mph4.8 kmh 29.79 in1008.8 mb 0.00 in0.0 mm 0.00 in0.0 mm 0.00 in0.0 mm
06:00 PM 87.5°F30.8°C 61.5°F16.4°C 42% 5.0 mph W8.0 kmh W 5.0 mph8.0 kmh 29.79 in1008.8 mb 0.00 in0.0 mm 0.00 in0.0 mm 0.00 in0.0 mm
06:05 PM 87.3°F30.7°C 61.3°F16.3°C 42% 14.0 mph W22.5 kmh W 14.0 mph22.5 kmh 29.79 in1008.8 mb 0.00 in0.0 mm 0.00 in0.0 mm 0.00 in0.0 mm
06:10 PM 87.0°F30.6°C 58.2°F14.6°C 38% 7.0 mph NW11.3 kmh NW 14.0 mph22.5 kmh 29.79 in1008.8 mb 0.00 in0.0 mm 0.00 in0.0 mm 0.00 in0.0 mm
06:15 PM 86.6°F30.3°C 57.9°F14.4°C 38% 6.0 mph N9.7 kmh N 14.0 mph22.5 kmh 29.78 in1008.5 mb 0.00 in0.0 mm 0.00 in0.0 mm 0.00 in0.0 mm
06:20 PM 86.2°F30.1°C 57.5°F14.2°C 38% 6.0 mph N9.7 kmh N 16.0 mph25.7 kmh 29.79 in1008.8 mb 0.00 in0.0 mm 0.00 in0.0 mm 0.00 in0.0 mm
06:25 PM 85.9°F29.9°C 55.8°F13.2°C 36% 2.0 mph NNW3.2 kmh NNW 11.0 mph17.7 kmh 29.79 in1008.8 mb 0.00 in0.0 mm 0.00 in0.0 mm 0.00 in0.0 mm
06:30 PM 85.6°F29.8°C 55.5°F13.1°C 36% 5.0 mph N8.0 kmh N 7.0 mph11.3 kmh 29.80 in1009.1 mb 0.00 in0.0 mm 0.00 in0.0 mm 0.00 in0.0 mm
06:35 PM 85.1°F29.5°C 56.6°F13.7°C 38% 6.0 mph NE9.7 kmh NE 8.0 mph12.9 kmh 29.80 in1009.1 mb 0.00 in0.0 mm 0.00 in0.0 mm 0.00 in0.0 mm
06:40 PM 84.7°F29.3°C 58.3°F14.6°C 41% 3.0 mph ENE4.8 kmh ENE 13.0 mph20.9 kmh 29.80 in1009.1 mb 0.00 in0.0 mm 0.00 in0.0 mm 0.00 in0.0 mm
06:45 PM 83.7°F28.7°C 58.7°F14.8°C 43% 6.0 mph SE9.7 kmh SE 14.0 mph22.5 kmh 29.81 in1009.5 mb 0.00 in0.0 mm 0.00 in0.0 mm 0.00 in0.0 mm
06:50 PM 83.2°F28.4°C 58.9°F14.9°C 44% 5.0 mph W8.0 kmh W 11.0 mph17.7 kmh 29.83 in1010.2 mb 0.00 in0.0 mm 0.00 in0.0 mm 0.00 in0.0 mm
06:55 PM 82.8°F28.2°C 60.4°F15.8°C 47% 13.0 mph W20.9 kmh W 21.0 mph33.8 kmh 29.84 in1010.5 mb 0.00 in0.0 mm 0.00 in0.0 mm 0.00 in0.0 mm
07:00 PM 82.0°F27.8°C 61.4°F16.3°C 50% 7.0 mph WNW11.3 kmh WNW 21.0 mph33.8 kmh 29.85 in1010.8 mb 0.00 in0.0 mm 0.00 in0.0 mm 0.00 in0.0 mm
07:05 PM 81.4°F27.4°C 61.5°F16.4°C 51% 6.0 mph WNW9.7 kmh WNW 12.0 mph19.3 kmh 29.85 in1010.8 mb 0.00 in0.0 mm 0.00 in0.0 mm 0.00 in0.0 mm
07:10 PM 80.8°F27.1°C 62.0°F16.7°C 53% 7.0 mph WNW11.3 kmh WNW 9.0 mph14.5 kmh 29.86 in1011.2 mb 0.00 in0.0 mm 0.00 in0.0 mm 0.00 in0.0 mm
07:15 PM 80.4°F26.9°C 62.2°F16.8°C 54% 7.0 mph W11.3 kmh W 10.0 mph16.1 kmh 29.86 in1011.2 mb 0.00 in0.0 mm 0.00 in0.0 mm 0.00 in0.0 mm
07:20 PM 79.7°F26.5°C 63.5°F17.5°C 58% 8.0 mph WSW12.9 kmh WSW 13.0 mph20.9 kmh 29.88 in1011.9 mb 0.00 in0.0 mm 0.00 in0.0 mm 0.00 in0.0 mm
07:25 PM 78.7°F25.9°C 64.5°F18.1°C 62% 5.0 mph WSW8.0 kmh WSW 11.0 mph17.7 kmh 29.89 in1012.2 mb 0.00 in0.0 mm 0.00 in0.0 mm 0.00 in0.0 mm
07:30 PM 77.6°F25.3°C 63.9°F17.7°C 63% 11.0 mph WSW17.7 kmh WSW 13.0 mph20.9 kmh 29.89 in1012.2 mb 0.00 in0.0 mm 0.00 in0.0 mm 0.00 in0.0 mm
07:35 PM 76.8°F24.9°C 64.1°F17.8°C 65% 4.0 mph WNW6.4 kmh WNW 12.0 mph19.3 kmh 29.90 in1012.5 mb 0.00 in0.0 mm 0.00 in0.0 mm 0.00 in0.0 mm
07:40 PM 76.3°F24.6°C 64.5°F18.1°C 67% 8.0 mph SW12.9 kmh SW 11.0 mph17.7 kmh 29.91 in1012.9 mb 0.00 in0.0 mm 0.00 in0.0 mm 0.00 in0.0 mm
07:45 PM 75.4°F24.1°C 64.0°F17.8°C 68% 15.0 mph SW24.1 kmh SW 22.0 mph35.4 kmh 29.91 in1012.9 mb 0.00 in0.0 mm 0.00 in0.0 mm 0.00 in0.0 mm
07:50 PM 74.0°F23.3°C 63.5°F17.5°C 70% 12.0 mph W19.3 kmh W 19.0 mph30.6 kmh 29.92 in1013.2 mb 0.00 in0.0 mm 0.00 in0.0 mm 0.00 in0.0 mm
07:55 PM 72.7°F22.6°C 63.1°F17.3°C 72% 8.0 mph WSW12.9 kmh WSW 18.0 mph29.0 kmh 29.92 in1013.2 mb 0.00 in0.0 mm 0.00 in0.0 mm 0.00 in0.0 mm
08:00 PM 72.0°F22.2°C 63.2°F17.3°C 74% 9.0 mph WSW14.5 kmh WSW 16.0 mph25.7 kmh 29.93 in1013.5 mb 0.01 in0.3 mm 0.01 in0.3 mm 0.01 in0.3 mm
08:05 PM 71.4°F21.9°C 63.4°F17.4°C 76% 8.0 mph WSW12.9 kmh WSW 16.0 mph25.7 kmh 29.93 in1013.5 mb 0.01 in0.3 mm 0.00 in0.0 mm 0.01 in0.3 mm
08:10 PM 70.7°F21.5°C 62.7°F17.1°C 76% 9.0 mph WSW14.5 kmh WSW 18.0 mph29.0 kmh 29.93 in1013.5 mb 0.01 in0.3 mm 0.00 in0.0 mm 0.01 in0.3 mm
08:15 PM 70.5°F21.4°C 62.5°F16.9°C 76% 10.0 mph WSW16.1 kmh WSW 17.0 mph27.4 kmh 29.94 in1013.9 mb 0.01 in0.3 mm 0.00 in0.0 mm 0.01 in0.3 mm
08:20 PM 70.3°F21.3°C 62.7°F17.1°C 77% 10.0 mph W16.1 kmh W 18.0 mph29.0 kmh 29.95 in1014.2 mb 0.01 in0.3 mm 0.00 in0.0 mm 0.01 in0.3 mm
08:25 PM 70.0°F21.1°C 62.8°F17.1°C 78% 9.0 mph W14.5 kmh W 17.0 mph27.4 kmh 29.95 in1014.2 mb 0.01 in0.3 mm 0.00 in0.0 mm 0.01 in0.3 mm
08:30 PM 69.5°F20.8°C 63.0°F17.2°C 80% 7.0 mph WSW11.3 kmh WSW 16.0 mph25.7 kmh 29.95 in1014.2 mb 0.02 in0.5 mm 0.12 in3.0 mm 0.02 in0.5 mm
08:35 PM 68.9°F20.5°C 63.1°F17.3°C 82% 6.0 mph WNW9.7 kmh WNW 12.0 mph19.3 kmh 29.96 in1014.6 mb 0.03 in0.8 mm 0.12 in3.0 mm 0.03 in0.8 mm
08:40 PM 68.5°F20.3°C 63.4°F17.4°C 84% 5.0 mph WSW8.0 kmh WSW 9.0 mph14.5 kmh 29.96 in1014.6 mb 0.04 in1.0 mm 0.12 in3.0 mm 0.04 in1.0 mm
08:45 PM 68.1°F20.1°C 63.4°F17.4°C 85% 5.0 mph W8.0 kmh W 8.0 mph12.9 kmh 29.97 in1014.9 mb 0.05 in1.3 mm 0.12 in3.0 mm 0.05 in1.3 mm
08:50 PM 67.9°F19.9°C 63.5°F17.5°C 86% 3.0 mph WSW4.8 kmh WSW 6.0 mph9.7 kmh 29.96 in1014.6 mb 0.06 in1.5 mm 0.12 in3.0 mm 0.06 in1.5 mm
08:55 PM 67.8°F19.9°C 63.7°F17.6°C 87% 3.0 mph WSW4.8 kmh WSW 5.0 mph8.0 kmh 29.97 in1014.9 mb 0.06 in1.5 mm 0.00 in0.0 mm 0.06 in1.5 mm
09:00 PM 67.7°F19.8°C 63.6°F17.6°C 87% 3.0 mph WNW4.8 kmh WNW 4.0 mph6.4 kmh 29.96 in1014.6 mb 0.05 in1.3 mm 0.00 in0.0 mm 0.06 in1.5 mm
09:05 PM 67.6°F19.8°C 63.5°F17.5°C 87% 5.0 mph W8.0 kmh W 5.0 mph8.0 kmh 29.96 in1014.6 mb 0.05 in1.3 mm 0.00 in0.0 mm 0.06 in1.5 mm
09:10 PM 67.6°F19.8°C 63.5°F17.5°C 87% 4.0 mph W6.4 kmh W 9.0 mph14.5 kmh 29.96 in1014.6 mb 0.05 in1.3 mm 0.00 in0.0 mm 0.06 in1.5 mm
09:15 PM 67.5°F19.7°C 63.4°F17.4°C 87% 7.0 mph WSW11.3 kmh WSW 9.0 mph14.5 kmh 29.96 in1014.6 mb 0.05 in1.3 mm 0.00 in0.0 mm 0.06 in1.5 mm
09:20 PM 67.4°F19.7°C 63.3°F17.4°C 87% 3.0 mph W4.8 kmh W 9.0 mph14.5 kmh 29.96 in1014.6 mb 0.06 in1.5 mm 0.12 in3.0 mm 0.06 in1.5 mm
09:25 PM 67.3°F19.6°C 63.6°F17.6°C 88% 6.0 mph WSW9.7 kmh WSW 9.0 mph14.5 kmh 29.96 in1014.6 mb 0.06 in1.5 mm 0.00 in0.0 mm 0.06 in1.5 mm
09:30 PM 67.2°F19.6°C 63.5°F17.5°C 88% 4.0 mph WSW6.4 kmh WSW 10.0 mph16.1 kmh 29.96 in1014.6 mb 0.05 in1.3 mm 0.00 in0.0 mm 0.07 in1.8 mm
09:35 PM 67.2°F19.6°C 63.5°F17.5°C 88% 3.0 mph WSW4.8 kmh WSW 9.0 mph14.5 kmh 29.96 in1014.6 mb 0.04 in1.0 mm 0.00 in0.0 mm 0.07 in1.8 mm
09:40 PM 67.2°F19.6°C 63.5°F17.5°C 88% 4.0 mph SW6.4 kmh SW 7.0 mph11.3 kmh 29.96 in1014.6 mb 0.03 in0.8 mm 0.00 in0.0 mm 0.07 in1.8 mm
09:45 PM 67.2°F19.6°C 63.5°F17.5°C 88% 2.0 mph WSW3.2 kmh WSW 6.0 mph9.7 kmh 29.96 in1014.6 mb 0.02 in0.5 mm 0.00 in0.0 mm 0.07 in1.8 mm
09:50 PM 67.3°F19.6°C 63.6°F17.6°C 88% 5.0 mph WSW8.0 kmh WSW 6.0 mph9.7 kmh 29.96 in1014.6 mb 0.02 in0.5 mm 0.00 in0.0 mm 0.07 in1.8 mm
09:55 PM 67.4°F19.7°C 64.0°F17.8°C 89% 4.0 mph SSW6.4 kmh SSW 10.0 mph16.1 kmh 29.97 in1014.9 mb 0.02 in0.5 mm 0.00 in0.0 mm 0.07 in1.8 mm
10:00 PM 67.5°F19.7°C 64.1°F17.8°C 89% 6.0 mph WSW9.7 kmh WSW 10.0 mph16.1 kmh 29.97 in1014.9 mb 0.02 in0.5 mm 0.00 in0.0 mm 0.07 in1.8 mm
10:05 PM 67.5°F19.7°C 63.8°F17.7°C 88% 8.0 mph W12.9 kmh W 13.0 mph20.9 kmh 29.97 in1014.9 mb 0.02 in0.5 mm 0.00 in0.0 mm 0.07 in1.8 mm
10:10 PM 67.6°F19.8°C 62.9°F17.2°C 85% 7.0 mph WSW11.3 kmh WSW 14.0 mph22.5 kmh 29.97 in1014.9 mb 0.02 in0.5 mm 0.00 in0.0 mm 0.07 in1.8 mm
10:15 PM 67.6°F19.8°C 62.5°F16.9°C 84% 6.0 mph SW9.7 kmh SW 19.0 mph30.6 kmh 29.97 in1014.9 mb 0.02 in0.5 mm 0.00 in0.0 mm 0.07 in1.8 mm
10:20 PM 67.4°F19.7°C 62.0°F16.7°C 83% 13.0 mph WSW20.9 kmh WSW 15.0 mph24.1 kmh 29.97 in1014.9 mb 0.01 in0.3 mm 0.00 in0.0 mm 0.07 in1.8 mm
10:25 PM 67.3°F19.6°C 61.9°F16.6°C 83% 6.0 mph W9.7 kmh W 15.0 mph24.1 kmh 29.97 in1014.9 mb 0.01 in0.3 mm 0.00 in0.0 mm 0.07 in1.8 mm
10:30 PM 67.2°F19.6°C 61.8°F16.6°C 83% 5.0 mph WNW8.0 kmh WNW 11.0 mph17.7 kmh 29.98 in1015.2 mb 0.00 in0.0 mm 0.00 in0.0 mm 0.07 in1.8 mm
10:35 PM 66.9°F19.4°C 61.9°F16.6°C 84% 4.0 mph W6.4 kmh W 7.0 mph11.3 kmh 29.98 in1015.2 mb 0.00 in0.0 mm 0.00 in0.0 mm 0.07 in1.8 mm
10:40 PM 66.8°F19.3°C 61.8°F16.6°C 84% 3.0 mph WSW4.8 kmh WSW 6.0 mph9.7 kmh 29.98 in1015.2 mb 0.00 in0.0 mm 0.00 in0.0 mm 0.07 in1.8 mm
10:45 PM 66.7°F19.3°C 62.0°F16.7°C 85% 2.0 mph SW3.2 kmh SW 4.0 mph6.4 kmh 29.98 in1015.2 mb 0.00 in0.0 mm 0.00 in0.0 mm 0.07 in1.8 mm
10:50 PM 66.7°F19.3°C 62.0°F16.7°C 85% 1.0 mph WSW1.6 kmh WSW 5.0 mph8.0 kmh 29.99 in1015.6 mb 0.00 in0.0 mm 0.00 in0.0 mm 0.07 in1.8 mm
10:55 PM 66.7°F19.3°C 62.0°F16.7°C 85% 1.0 mph WSW1.6 kmh WSW 4.0 mph6.4 kmh 29.99 in1015.6 mb 0.00 in0.0 mm 0.00 in0.0 mm 0.07 in1.8 mm
11:00 PM 66.8°F19.3°C 62.1°F16.7°C 85% 1.0 mph WSW1.6 kmh WSW 4.0 mph6.4 kmh 29.99 in1015.6 mb 0.00 in0.0 mm 0.00 in0.0 mm 0.07 in1.8 mm
11:05 PM 66.8°F19.3°C 62.4°F16.9°C 86% 1.0 mph WSW1.6 kmh WSW 3.0 mph4.8 kmh 29.99 in1015.6 mb 0.00 in0.0 mm 0.00 in0.0 mm 0.07 in1.8 mm
11:10 PM 66.8°F19.3°C 62.4°F16.9°C 86% 2.0 mph WSW3.2 kmh WSW 3.0 mph4.8 kmh 29.99 in1015.6 mb 0.00 in0.0 mm 0.00 in0.0 mm 0.07 in1.8 mm
11:15 PM 66.9°F19.4°C 62.5°F16.9°C 86% Calm Calm 3.0 mph4.8 kmh 30.00 in1015.9 mb 0.00 in0.0 mm 0.00 in0.0 mm 0.07 in1.8 mm
11:20 PM 66.9°F19.4°C 62.5°F16.9°C 86% Calm Calm 4.0 mph6.4 kmh 30.00 in1015.9 mb 0.00 in0.0 mm 0.00 in0.0 mm 0.07 in1.8 mm
11:25 PM 67.0°F19.4°C 62.6°F17.0°C 86% 2.0 mph S3.2 kmh S 4.0 mph6.4 kmh 30.00 in1015.9 mb 0.00 in0.0 mm 0.00 in0.0 mm 0.07 in1.8 mm
11:30 PM 67.1°F19.5°C 62.4°F16.9°C 85% 1.0 mph SW1.6 kmh SW 3.0 mph4.8 kmh 30.00 in1015.9 mb 0.00 in0.0 mm 0.00 in0.0 mm 0.07 in1.8 mm
11:35 PM 67.3°F19.6°C 62.6°F17.0°C 85% 3.0 mph SW4.8 kmh SW 4.0 mph6.4 kmh 30.00 in1015.9 mb 0.00 in0.0 mm 0.00 in0.0 mm 0.07 in1.8 mm
11:40 PM 67.3°F19.6°C 62.6°F17.0°C 85% 3.0 mph SW4.8 kmh SW 6.0 mph9.7 kmh 30.00 in1015.9 mb 0.00 in0.0 mm 0.00 in0.0 mm 0.07 in1.8 mm
11:45 PM 67.5°F19.7°C 62.8°F17.1°C 85% 4.0 mph SW6.4 kmh SW 4.0 mph6.4 kmh 30.00 in1015.9 mb 0.00 in0.0 mm 0.00 in0.0 mm 0.07 in1.8 mm
11:50 PM 67.5°F19.7°C 62.8°F17.1°C 85% 2.0 mph SW3.2 kmh SW 5.0 mph8.0 kmh 30.00 in1015.9 mb 0.00 in0.0 mm 0.00 in0.0 mm 0.07 in1.8 mm
11:55 PM 67.5°F19.7°C 62.8°F17.1°C 85% 2.0 mph SW3.2 kmh SW 5.0 mph8.0 kmh 30.00 in1015.9 mb 0.00 in0.0 mm 0.00 in0.0 mm 0.07 in1.8 mm